createdAt,value
2022-08-29T00:00:17.744Z,99.99
2022-08-29T00:01:11.180Z,99.99
2022-08-29T00:02:10.197Z,99.99
2022-08-29T00:03:10.167Z,99.99
2022-08-29T00:04:10.190Z,99.99
2022-08-29T00:05:10.180Z,99.99
2022-08-29T00:06:10.165Z,99.99
2022-08-29T00:07:10.120Z,99.99
2022-08-29T00:08:10.207Z,99.99
2022-08-29T00:09:10.095Z,99.99
2022-08-29T00:10:10.127Z,99.99
2022-08-29T00:11:10.056Z,99.99
2022-08-29T00:12:10.056Z,99.99
2022-08-29T00:13:10.060Z,99.99
2022-08-29T00:14:21.099Z,99.99
2022-08-29T00:15:11.067Z,99.99
2022-08-29T00:16:10.627Z,99.99
2022-08-29T00:17:10.000Z,99.99
2022-08-29T00:18:10.017Z,99.99
2022-08-29T00:19:09.966Z,99.99
2022-08-29T00:20:10.011Z,99.99
2022-08-29T00:21:09.967Z,99.99
2022-08-29T00:22:09.948Z,99.99
2022-08-29T00:23:09.935Z,99.99
2022-08-29T00:24:09.918Z,99.99
2022-08-29T00:25:09.958Z,99.99
2022-08-29T00:26:09.901Z,99.99
2022-08-29T00:27:09.892Z,99.99
2022-08-29T00:28:09.900Z,99.99
2022-08-29T00:29:09.872Z,99.99
2022-08-29T00:30:09.901Z,99.99
2022-08-29T00:31:09.853Z,99.99
2022-08-29T00:32:09.924Z,99.99
2022-08-29T00:33:09.824Z,99.99
2022-08-29T00:34:09.813Z,99.99
2022-08-29T00:35:09.854Z,99.99
2022-08-29T00:36:09.786Z,99.99
2022-08-29T00:37:09.775Z,99.99
2022-08-29T00:38:09.759Z,99.99
2022-08-29T00:39:09.753Z,99.99
2022-08-29T00:40:09.858Z,99.99
2022-08-29T00:41:09.737Z,99.99
2022-08-29T00:42:09.722Z,99.99
2022-08-29T00:43:09.716Z,99.99
2022-08-29T00:44:09.735Z,99.99
2022-08-29T00:45:09.685Z,99.99
2022-08-29T00:46:09.697Z,99.99
2022-08-29T00:47:09.661Z,99.99
2022-08-29T00:48:09.651Z,99.99
2022-08-29T00:49:09.693Z,99.99
2022-08-29T00:50:09.621Z,99.99
2022-08-29T00:51:09.633Z,99.99
2022-08-29T00:52:09.619Z,99.99
2022-08-29T00:53:09.633Z,99.99
2022-08-29T00:54:09.738Z,99.99
2022-08-29T00:55:09.583Z,99.99
2022-08-29T00:56:09.560Z,99.99
2022-08-29T00:57:09.554Z,99.99
2022-08-29T00:58:09.536Z,99.99
2022-08-29T00:59:09.538Z,99.99
2022-08-29T01:00:09.564Z,99.99
2022-08-29T01:01:09.545Z,99.99
2022-08-29T01:02:09.540Z,99.99
2022-08-29T01:03:09.483Z,99.99
2022-08-29T01:04:09.880Z,99.99
2022-08-29T01:05:10.508Z,99.99
2022-08-29T01:06:09.448Z,99.99
2022-08-29T01:07:09.440Z,99.99
2022-08-29T01:08:09.429Z,99.99
2022-08-29T01:09:09.419Z,99.99
2022-08-29T01:10:13.801Z,99.99
2022-08-29T01:11:09.388Z,99.99
2022-08-29T01:12:09.374Z,99.99
2022-08-29T01:13:09.367Z,99.99
2022-08-29T01:14:09.349Z,99.99
2022-08-29T01:15:09.389Z,99.99
2022-08-29T01:16:09.363Z,99.99
2022-08-29T01:17:09.326Z,99.99
2022-08-29T01:18:09.307Z,99.99
2022-08-29T01:19:09.297Z,99.99
2022-08-29T01:20:09.323Z,99.99
2022-08-29T01:21:09.279Z,99.99
2022-08-29T01:22:09.262Z,99.99
2022-08-29T01:23:09.260Z,99.99
2022-08-29T01:24:09.887Z,99.99
2022-08-29T01:25:09.295Z,99.99
2022-08-29T01:26:09.223Z,99.99
2022-08-29T01:27:09.217Z,99.99
2022-08-29T01:28:09.199Z,99.99
2022-08-29T01:29:09.195Z,99.99
2022-08-29T01:30:09.234Z,99.99
2022-08-29T01:31:09.208Z,99.99
2022-08-29T01:32:09.180Z,99.99
2022-08-29T01:33:09.148Z,99.99
2022-08-29T01:34:09.121Z,99.99
2022-08-29T01:35:09.180Z,99.99
2022-08-29T01:36:09.113Z,99.99
2022-08-29T01:37:09.112Z,99.99
2022-08-29T01:38:09.096Z,99.99
2022-08-29T01:39:09.088Z,99.99
2022-08-29T01:40:09.186Z,99.99
2022-08-29T01:41:09.051Z,99.99
2022-08-29T01:42:09.045Z,99.99
2022-08-29T01:43:09.036Z,99.99
2022-08-29T01:44:09.032Z,99.99
2022-08-29T01:45:09.883Z,99.99
2022-08-29T01:46:09.026Z,99.99
2022-08-29T01:47:08.988Z,99.99
2022-08-29T01:48:08.982Z,99.99
2022-08-29T01:49:08.958Z,99.99
2022-08-29T01:50:08.985Z,99.99
2022-08-29T01:51:08.957Z,99.99
2022-08-29T01:52:08.935Z,99.99
2022-08-29T01:53:08.928Z,99.99
2022-08-29T01:54:08.935Z,99.99
2022-08-29T01:55:08.937Z,99.99
2022-08-29T01:56:08.893Z,99.99
2022-08-29T01:57:12.773Z,99.99
2022-08-29T01:58:08.875Z,99.99
2022-08-29T01:59:08.855Z,99.99
2022-08-29T02:00:08.883Z,99.99
2022-08-29T02:01:08.939Z,99.99
2022-08-29T02:02:08.839Z,99.99
2022-08-29T02:03:08.815Z,99.99
2022-08-29T02:04:08.804Z,99.99
2022-08-29T02:05:08.834Z,99.99
2022-08-29T02:06:08.780Z,99.99
2022-08-29T02:07:12.511Z,99.99
2022-08-29T02:08:08.742Z,99.99
2022-08-29T02:09:08.732Z,99.99
2022-08-29T02:10:08.764Z,99.99
2022-08-29T02:11:08.714Z,99.99
2022-08-29T02:12:08.705Z,99.99
2022-08-29T02:13:08.718Z,99.99
2022-08-29T02:14:15.449Z,99.99
2022-08-29T02:15:09.723Z,99.99
2022-08-29T02:16:08.668Z,99.99
2022-08-29T02:17:08.659Z,99.99
2022-08-29T02:18:08.624Z,99.99
2022-08-29T02:19:08.636Z,99.99
2022-08-29T02:20:08.668Z,99.99
2022-08-29T02:21:08.631Z,99.99
2022-08-29T02:22:08.600Z,99.99
2022-08-29T02:23:27.110Z,99.99
2022-08-29T02:24:24.515Z,99.99
2022-08-29T02:25:09.619Z,99.99
2022-08-29T02:26:08.573Z,99.99
2022-08-29T02:27:08.705Z,99.99
2022-08-29T02:28:08.546Z,99.99
2022-08-29T02:29:08.518Z,99.99
2022-08-29T02:30:08.545Z,99.99
2022-08-29T02:31:08.531Z,99.99
2022-08-29T02:32:08.467Z,99.99
2022-08-29T02:33:08.467Z,99.99
2022-08-29T02:34:08.449Z,99.99
2022-08-29T02:35:08.496Z,99.99
2022-08-29T02:36:08.431Z,99.99
2022-08-29T02:37:08.431Z,99.99
2022-08-29T02:38:08.503Z,99.99
2022-08-29T02:39:08.454Z,99.99
2022-08-29T02:40:08.454Z,99.99
2022-08-29T02:41:11.317Z,99.99
2022-08-29T02:42:09.374Z,99.99
2022-08-29T02:43:08.371Z,99.99
2022-08-29T02:44:08.383Z,99.99
2022-08-29T02:45:08.341Z,99.99
2022-08-29T02:46:08.317Z,99.99
2022-08-29T02:47:08.372Z,99.99
2022-08-29T02:48:08.401Z,99.99
2022-08-29T02:49:08.296Z,99.99
2022-08-29T02:50:08.330Z,99.99
2022-08-29T02:51:08.286Z,99.99
2022-08-29T02:52:08.253Z,99.99
2022-08-29T02:53:08.241Z,99.99
2022-08-29T02:54:08.235Z,99.99
2022-08-29T02:55:08.285Z,99.99
2022-08-29T02:56:08.223Z,99.99
2022-08-29T02:57:08.212Z,99.99
2022-08-29T02:58:08.179Z,99.99
2022-08-29T02:59:08.163Z,99.99
2022-08-29T03:00:08.209Z,99.99
2022-08-29T03:01:08.170Z,99.99
2022-08-29T03:02:08.175Z,99.99
2022-08-29T03:03:08.107Z,99.99
2022-08-29T03:04:08.117Z,99.99
2022-08-29T03:05:08.138Z,99.99
2022-08-29T03:06:08.099Z,99.99
2022-08-29T03:07:08.081Z,99.99
2022-08-29T03:08:08.085Z,99.99
2022-08-29T03:09:08.063Z,99.99
2022-08-29T03:10:08.103Z,99.99
2022-08-29T03:11:08.065Z,99.99
2022-08-29T03:12:08.023Z,99.99
2022-08-29T03:13:08.011Z,99.99
2022-08-29T03:14:07.996Z,99.99
2022-08-29T03:15:08.035Z,99.99
2022-08-29T03:16:08.052Z,99.99
2022-08-29T03:17:07.978Z,99.99
2022-08-29T03:18:07.999Z,99.99
2022-08-29T03:19:07.959Z,99.99
2022-08-29T03:20:07.965Z,99.99
2022-08-29T03:21:07.911Z,99.99
2022-08-29T03:22:07.923Z,99.99
2022-08-29T03:23:07.896Z,99.99
2022-08-29T03:24:07.886Z,99.99
2022-08-29T03:25:07.914Z,99.99
2022-08-29T03:26:07.855Z,99.99
2022-08-29T03:27:07.851Z,99.99
2022-08-29T03:28:07.879Z,99.99
2022-08-29T03:29:07.826Z,99.99
2022-08-29T03:30:09.628Z,99.99
2022-08-29T03:31:07.816Z,99.99
2022-08-29T03:32:07.783Z,99.99
2022-08-29T03:33:11.158Z,99.99
2022-08-29T03:34:07.785Z,99.99
2022-08-29T03:35:07.807Z,99.99
2022-08-29T03:36:13.600Z,99.99
2022-08-29T03:37:08.733Z,99.99
2022-08-29T03:38:07.763Z,99.99
2022-08-29T03:39:07.708Z,99.99
2022-08-29T03:40:07.822Z,99.99
2022-08-29T03:41:07.694Z,99.99
2022-08-29T03:42:07.674Z,99.99
2022-08-29T03:43:07.655Z,99.99
2022-08-29T03:44:07.660Z,99.99
2022-08-29T03:45:07.695Z,99.99
2022-08-29T03:46:07.693Z,99.99
2022-08-29T03:47:07.619Z,99.99
2022-08-29T03:48:07.634Z,99.99
2022-08-29T03:49:07.605Z,99.99
2022-08-29T03:50:07.620Z,99.99
2022-08-29T03:51:07.578Z,99.99
2022-08-29T03:52:07.564Z,99.99
2022-08-29T03:53:07.559Z,99.99
2022-08-29T03:54:07.543Z,99.99
2022-08-29T03:55:07.571Z,99.99
2022-08-29T03:56:07.524Z,99.99
2022-08-29T03:57:07.543Z,99.99
2022-08-29T03:58:07.502Z,99.99
2022-08-29T03:59:07.461Z,99.99
2022-08-29T04:00:07.511Z,99.99
2022-08-29T04:01:07.443Z,99.99
2022-08-29T04:02:07.494Z,99.99
2022-08-29T04:03:07.519Z,99.99
2022-08-29T04:04:07.443Z,99.99
2022-08-29T04:05:08.373Z,99.99
2022-08-29T04:06:07.415Z,99.99
2022-08-29T04:07:07.421Z,99.99
2022-08-29T04:08:07.385Z,99.99
2022-08-29T04:09:07.370Z,99.99
2022-08-29T04:10:07.406Z,99.99
2022-08-29T04:11:07.364Z,99.99
2022-08-29T04:12:07.332Z,99.99
2022-08-29T04:13:07.330Z,99.99
2022-08-29T04:14:07.330Z,99.99
2022-08-29T04:15:07.345Z,99.99
2022-08-29T04:16:07.353Z,99.99
2022-08-29T04:17:07.281Z,99.99
2022-08-29T04:18:07.280Z,99.99
2022-08-29T04:19:08.883Z,99.99
2022-08-29T04:20:07.290Z,99.99
2022-08-29T04:21:07.243Z,99.99
2022-08-29T04:22:07.239Z,99.99
2022-08-29T04:23:07.215Z,99.99
2022-08-29T04:24:07.238Z,99.99
2022-08-29T04:25:07.273Z,99.99
2022-08-29T04:26:27.102Z,99.99
2022-08-29T04:27:08.188Z,99.99
2022-08-29T04:28:07.166Z,99.99
2022-08-29T04:29:07.158Z,99.99
2022-08-29T04:30:07.186Z,99.99
2022-08-29T04:31:07.166Z,99.99
2022-08-29T04:32:07.135Z,99.99
2022-08-29T04:33:07.118Z,99.99
2022-08-29T04:34:07.100Z,99.99
2022-08-29T04:35:07.127Z,99.99
2022-08-29T04:36:07.076Z,99.99
2022-08-29T04:37:07.065Z,99.99
2022-08-29T04:38:07.160Z,99.99
2022-08-29T04:39:07.042Z,99.99
2022-08-29T04:40:07.107Z,99.99
2022-08-29T04:41:07.022Z,99.99
2022-08-29T04:42:07.025Z,99.99
2022-08-29T04:43:07.023Z,99.99
2022-08-29T04:44:07.008Z,99.99
2022-08-29T04:45:07.014Z,99.99
2022-08-29T04:46:07.005Z,99.99
2022-08-29T04:47:07.961Z,99.99
2022-08-29T04:48:06.951Z,99.99
2022-08-29T04:49:06.928Z,99.99
2022-08-29T04:50:06.955Z,99.99
2022-08-29T04:51:06.913Z,99.99
2022-08-29T04:52:06.896Z,99.99
2022-08-29T04:53:06.875Z,99.99
2022-08-29T04:54:06.896Z,99.99
2022-08-29T04:55:06.913Z,99.99
2022-08-29T04:56:06.866Z,99.99
2022-08-29T04:57:06.835Z,99.99
2022-08-29T04:58:06.814Z,99.99
2022-08-29T04:59:06.797Z,99.99
2022-08-29T05:00:06.858Z,99.99
2022-08-29T05:01:06.801Z,99.99
2022-08-29T05:02:06.855Z,99.99
2022-08-29T05:03:06.867Z,99.99
2022-08-29T05:04:09.276Z,99.99
2022-08-29T05:05:06.795Z,99.99
2022-08-29T05:06:06.735Z,99.99
2022-08-29T05:07:06.708Z,99.99
2022-08-29T05:08:06.716Z,99.99
2022-08-29T05:09:06.682Z,99.99
2022-08-29T05:10:06.733Z,99.99
2022-08-29T05:11:06.672Z,99.99
2022-08-29T05:12:10.121Z,99.99
2022-08-29T05:13:06.642Z,99.99
2022-08-29T05:14:06.634Z,99.99
2022-08-29T05:15:06.680Z,99.99
2022-08-29T05:16:06.725Z,99.99
2022-08-29T05:17:06.613Z,99.99
2022-08-29T05:18:06.606Z,99.99
2022-08-29T05:19:06.592Z,99.99
2022-08-29T05:20:06.625Z,99.99
2022-08-29T05:21:06.558Z,99.99
2022-08-29T05:22:06.586Z,99.99
2022-08-29T05:23:06.516Z,99.99
2022-08-29T05:24:06.543Z,99.99
2022-08-29T05:25:06.570Z,99.99
2022-08-29T05:26:06.536Z,99.99
2022-08-29T05:27:06.471Z,99.99
2022-08-29T05:28:06.463Z,99.99
2022-08-29T05:29:08.680Z,99.99
2022-08-29T05:30:06.545Z,99.99
2022-08-29T05:31:07.630Z,99.99
2022-08-29T05:32:06.435Z,99.99
2022-08-29T05:33:06.445Z,99.99
2022-08-29T05:34:32.091Z,99.99
2022-08-29T05:35:07.453Z,99.99
2022-08-29T05:36:06.391Z,99.99
2022-08-29T05:37:06.393Z,99.99
2022-08-29T05:38:14.990Z,99.99
2022-08-29T05:39:07.438Z,99.99
2022-08-29T05:40:06.378Z,99.99
2022-08-29T05:41:06.340Z,99.30
2022-08-29T05:42:06.331Z,98.79
2022-08-29T05:43:06.314Z,98.90
2022-08-29T05:44:06.354Z,98.28
2022-08-29T05:45:06.315Z,98.90
2022-08-29T05:46:06.343Z,99.76
2022-08-29T05:47:06.281Z,98.34
2022-08-29T05:48:06.260Z,97.73
2022-08-29T05:49:06.306Z,96.82
2022-08-29T05:50:06.300Z,97.53
2022-08-29T05:51:06.252Z,97.69
2022-08-29T05:52:06.229Z,96.22
2022-08-29T05:53:06.209Z,97.02
2022-08-29T05:54:06.213Z,98.55
2022-08-29T05:55:06.207Z,96.53
2022-08-29T05:56:06.157Z,97.39
2022-08-29T05:57:06.152Z,96.74
2022-08-29T05:58:06.161Z,95.93
2022-08-29T05:59:06.132Z,96.84
2022-08-29T06:00:06.177Z,96.89
2022-08-29T06:01:06.104Z,97.39
2022-08-29T06:02:06.116Z,96.98
2022-08-29T06:03:06.151Z,95.72
2022-08-29T06:04:06.146Z,96.33
2022-08-29T06:05:06.079Z,96.12
2022-08-29T06:06:06.058Z,94.50
2022-08-29T06:07:06.051Z,95.78
2022-08-29T06:08:06.049Z,95.21
2022-08-29T06:09:06.004Z,96.88
2022-08-29T06:10:06.055Z,96.92
2022-08-29T06:11:06.007Z,98.49
2022-08-29T06:12:06.009Z,99.99
2022-08-29T06:13:05.974Z,99.99
2022-08-29T06:14:05.971Z,99.99
2022-08-29T06:15:05.997Z,99.99
2022-08-29T06:16:05.961Z,99.99
2022-08-29T06:17:05.928Z,99.91
2022-08-29T06:18:05.922Z,99.30
2022-08-29T06:19:05.954Z,98.96
2022-08-29T06:20:05.890Z,98.71
2022-08-29T06:21:05.883Z,95.83
2022-08-29T06:22:10.005Z,95.22
2022-08-29T06:23:05.843Z,95.73
2022-08-29T06:24:05.879Z,96.44
2022-08-29T06:25:28.086Z,96.28
2022-08-29T06:26:06.832Z,95.53
2022-08-29T06:27:05.841Z,94.51
2022-08-29T06:28:05.813Z,94.37
2022-08-29T06:29:05.875Z,95.07
2022-08-29T06:30:05.777Z,95.90
2022-08-29T06:31:05.843Z,95.04
2022-08-29T06:32:05.775Z,94.49
2022-08-29T06:33:05.739Z,92.33
2022-08-29T06:34:05.813Z,91.99
2022-08-29T06:35:05.736Z,92.55
2022-08-29T06:36:05.720Z,93.31
2022-08-29T06:37:05.706Z,92.86
2022-08-29T06:38:05.720Z,87.13
2022-08-29T06:39:05.738Z,87.67
2022-08-29T06:40:07.655Z,90.79
2022-08-29T06:41:05.654Z,90.85
2022-08-29T06:42:05.668Z,90.61
2022-08-29T06:43:05.622Z,88.70
2022-08-29T06:44:05.662Z,84.61
2022-08-29T06:45:05.639Z,86.83
2022-08-29T06:46:05.651Z,89.20
2022-08-29T06:47:05.593Z,90.16
2022-08-29T06:48:05.652Z,84.43
2022-08-29T06:49:05.656Z,82.92
2022-08-29T06:50:05.577Z,85.50
2022-08-29T06:51:05.529Z,87.01
2022-08-29T06:52:05.533Z,87.77
2022-08-29T06:53:26.559Z,83.69
2022-08-29T06:54:07.229Z,85.90
2022-08-29T06:55:05.509Z,87.87
2022-08-29T06:56:05.542Z,83.51
2022-08-29T06:57:05.484Z,82.64
2022-08-29T06:58:05.501Z,84.51
2022-08-29T06:59:05.512Z,82.57
2022-08-29T07:00:12.471Z,84.57
2022-08-29T07:01:06.451Z,84.53
2022-08-29T07:02:05.412Z,80.68
2022-08-29T07:03:05.450Z,80.48
2022-08-29T07:04:05.477Z,79.82
2022-08-29T07:05:06.399Z,84.63
2022-08-29T07:06:05.389Z,84.15
2022-08-29T07:07:05.377Z,80.04
2022-08-29T07:08:05.369Z,82.55
2022-08-29T07:09:05.397Z,79.80
2022-08-29T07:10:05.339Z,81.01
2022-08-29T07:11:05.326Z,82.71
2022-08-29T07:12:05.327Z,78.47
2022-08-29T07:13:05.300Z,79.77
2022-08-29T07:14:05.347Z,81.87
2022-08-29T07:15:05.284Z,79.93
2022-08-29T07:16:05.325Z,76.26
2022-08-29T07:17:05.278Z,73.47
2022-08-29T07:18:05.245Z,79.64
2022-08-29T07:19:05.256Z,80.41
2022-08-29T07:20:05.197Z,76.87
2022-08-29T07:21:05.202Z,74.23
2022-08-29T07:22:05.191Z,78.10
2022-08-29T07:23:05.206Z,77.40
2022-08-29T07:24:05.247Z,78.67
2022-08-29T07:25:05.160Z,78.06
2022-08-29T07:26:05.176Z,75.83
2022-08-29T07:27:05.157Z,75.69
2022-08-29T07:28:05.125Z,77.06
2022-08-29T07:29:05.169Z,75.89
2022-08-29T07:30:05.111Z,77.02
2022-08-29T07:31:05.196Z,75.98
2022-08-29T07:32:05.076Z,70.53
2022-08-29T07:33:05.056Z,71.99
2022-08-29T07:34:05.096Z,72.92
2022-08-29T07:35:05.071Z,72.78
2022-08-29T07:36:05.037Z,71.49
2022-08-29T07:37:05.861Z,71.46
2022-08-29T07:38:05.009Z,74.82
2022-08-29T07:39:05.052Z,72.19
2022-08-29T07:40:05.129Z,71.86
2022-08-29T07:41:04.975Z,71.12
2022-08-29T07:42:04.978Z,73.79
2022-08-29T07:43:04.971Z,73.75
2022-08-29T07:44:04.998Z,70.72
2022-08-29T07:45:04.948Z,71.02
2022-08-29T07:46:04.996Z,72.58
2022-08-29T07:47:04.917Z,69.06
2022-08-29T07:48:04.888Z,71.36
2022-08-29T07:49:05.942Z,71.12
2022-08-29T07:50:04.860Z,70.32
2022-08-29T07:51:08.415Z,69.43
2022-08-29T07:52:05.833Z,68.86
2022-08-29T07:53:04.858Z,71.09
2022-08-29T07:54:04.882Z,67.33
2022-08-29T07:55:04.830Z,66.47
2022-08-29T07:56:04.813Z,71.06
2022-08-29T07:57:04.786Z,71.45
2022-08-29T07:58:04.786Z,70.49
2022-08-29T07:59:04.837Z,71.09
2022-08-29T08:00:04.774Z,72.49
2022-08-29T08:01:04.828Z,70.36
2022-08-29T08:02:04.902Z,70.65
2022-08-29T08:03:04.828Z,69.76
2022-08-29T08:04:04.778Z,71.76
2022-08-29T08:05:06.764Z,67.56
2022-08-29T08:06:07.178Z,70.76
2022-08-29T08:07:04.702Z,71.26
2022-08-29T08:08:09.039Z,73.62
2022-08-29T08:09:05.685Z,70.92
2022-08-29T08:10:04.663Z,71.39
2022-08-29T08:11:04.627Z,68.76
2022-08-29T08:12:08.142Z,73.15
2022-08-29T08:13:04.697Z,70.72
2022-08-29T08:14:04.632Z,70.72
2022-08-29T08:15:04.589Z,69.59
2022-08-29T08:16:04.593Z,71.28
2022-08-29T08:17:04.615Z,67.30
2022-08-29T08:18:04.611Z,66.91
2022-08-29T08:19:04.554Z,66.83
2022-08-29T08:20:04.532Z,67.37
2022-08-29T08:21:04.533Z,66.58
2022-08-29T08:22:04.513Z,65.42
2022-08-29T08:23:04.540Z,64.19
2022-08-29T08:24:04.491Z,66.25
2022-08-29T08:25:04.499Z,64.00
2022-08-29T08:26:04.522Z,62.76
2022-08-29T08:27:04.482Z,65.64
2022-08-29T08:28:04.493Z,68.53
2022-08-29T08:29:04.445Z,68.96
2022-08-29T08:30:04.454Z,66.66
2022-08-29T08:31:06.284Z,71.62
2022-08-29T08:32:04.407Z,67.43
2022-08-29T08:33:04.450Z,68.19
2022-08-29T08:34:04.412Z,66.14
2022-08-29T08:35:04.378Z,67.10
2022-08-29T08:36:04.357Z,67.74
2022-08-29T08:37:04.355Z,64.72
2022-08-29T08:38:04.404Z,63.92
2022-08-29T08:39:04.328Z,65.65
2022-08-29T08:40:04.349Z,65.85
2022-08-29T08:41:04.336Z,65.52
2022-08-29T08:42:04.311Z,60.63
2022-08-29T08:43:04.345Z,61.42
2022-08-29T08:44:04.267Z,61.49
2022-08-29T08:45:04.249Z,64.43
2022-08-29T08:46:04.290Z,63.75
2022-08-29T08:47:04.238Z,61.24
2022-08-29T08:48:04.277Z,57.51
2022-08-29T08:49:04.217Z,57.81
2022-08-29T08:50:04.219Z,57.24
2022-08-29T08:51:04.194Z,61.57
2022-08-29T08:52:04.202Z,56.97
2022-08-29T08:53:04.246Z,60.37
2022-08-29T08:54:04.173Z,58.78
2022-08-29T08:55:04.158Z,63.20
2022-08-29T08:56:04.147Z,64.64
2022-08-29T08:57:04.127Z,67.69
2022-08-29T08:58:04.179Z,71.46
2022-08-29T08:59:04.116Z,71.06
2022-08-29T09:00:04.086Z,74.60
2022-08-29T09:01:04.135Z,75.50
2022-08-29T09:02:07.312Z,75.37
2022-08-29T09:03:04.108Z,75.81
2022-08-29T09:04:04.052Z,76.25
2022-08-29T09:05:04.030Z,78.59
2022-08-29T09:06:04.025Z,75.23
2022-08-29T09:07:04.018Z,75.21
2022-08-29T09:08:04.038Z,75.54
2022-08-29T09:09:04.008Z,76.08
2022-08-29T09:10:03.997Z,74.90
2022-08-29T09:11:03.975Z,73.12
2022-08-29T09:12:04.086Z,68.46
2022-08-29T09:13:03.997Z,67.33
2022-08-29T09:14:03.935Z,65.31
2022-08-29T09:15:03.911Z,63.43
2022-08-29T09:16:03.910Z,59.80
2022-08-29T09:17:03.920Z,58.72
2022-08-29T09:18:03.939Z,63.37
2022-08-29T09:19:03.893Z,61.33
2022-08-29T09:20:03.867Z,64.14
2022-08-29T09:21:06.596Z,56.92
2022-08-29T09:22:04.851Z,56.62
2022-08-29T09:23:03.888Z,62.10
2022-08-29T09:24:03.844Z,57.85
2022-08-29T09:25:03.831Z,63.80
2022-08-29T09:26:03.793Z,61.39
2022-08-29T09:27:03.804Z,61.50
2022-08-29T09:28:03.817Z,60.79
2022-08-29T09:29:03.782Z,57.89
2022-08-29T09:30:03.745Z,53.30
2022-08-29T09:31:03.765Z,58.90
2022-08-29T09:32:03.793Z,60.93
2022-08-29T09:33:03.796Z,63.51
2022-08-29T09:34:03.745Z,63.34
2022-08-29T09:35:10.818Z,61.18
2022-08-29T09:36:04.683Z,63.07
2022-08-29T09:37:03.697Z,59.31
2022-08-29T09:38:03.768Z,59.67
2022-08-29T09:39:03.669Z,62.66
2022-08-29T09:40:03.700Z,57.03
2022-08-29T09:41:03.639Z,57.93
2022-08-29T09:42:03.642Z,52.75
2022-08-29T09:43:03.659Z,53.59
2022-08-29T09:44:03.591Z,52.22
2022-08-29T09:45:03.583Z,57.51
2022-08-29T09:46:03.663Z,63.12
2022-08-29T09:47:03.631Z,62.04
2022-08-29T09:48:03.583Z,59.76
2022-08-29T09:49:03.586Z,61.80
2022-08-29T09:50:03.560Z,64.94
2022-08-29T09:51:03.532Z,64.74
2022-08-29T09:52:03.568Z,66.30
2022-08-29T09:53:03.510Z,68.43
2022-08-29T09:54:03.501Z,64.45
2022-08-29T09:55:03.515Z,64.59
2022-08-29T09:56:03.493Z,60.06
2022-08-29T09:57:03.528Z,64.42
2022-08-29T09:58:03.498Z,59.56
2022-08-29T09:59:03.478Z,61.12
2022-08-29T10:00:03.464Z,65.69
2022-08-29T10:01:04.476Z,59.52
2022-08-29T10:02:03.511Z,59.06
2022-08-29T10:03:03.414Z,56.52
2022-08-29T10:04:03.416Z,58.67
2022-08-29T10:05:03.405Z,61.07
2022-08-29T10:06:03.372Z,56.93
2022-08-29T10:07:03.456Z,56.02
2022-08-29T10:08:03.369Z,56.27
2022-08-29T10:09:03.355Z,60.83
2022-08-29T10:10:03.342Z,58.97
2022-08-29T10:11:03.399Z,56.20
2022-08-29T10:12:03.349Z,57.71
2022-08-29T10:13:03.296Z,56.17
2022-08-29T10:14:03.271Z,60.00
2022-08-29T10:15:03.306Z,54.05
2022-08-29T10:16:03.318Z,58.53
2022-08-29T10:17:03.349Z,59.93
2022-08-29T10:18:03.286Z,61.26
2022-08-29T10:19:03.247Z,57.02
2022-08-29T10:20:03.252Z,58.67
2022-08-29T10:21:03.211Z,52.71
2022-08-29T10:22:03.276Z,56.86
2022-08-29T10:23:03.246Z,55.68
2022-08-29T10:24:03.202Z,59.21
2022-08-29T10:25:03.187Z,58.64
2022-08-29T10:26:03.164Z,59.80
2022-08-29T10:27:03.150Z,61.96
2022-08-29T10:28:03.191Z,59.79
2022-08-29T10:29:03.139Z,60.03
2022-08-29T10:30:03.140Z,58.36
2022-08-29T10:31:03.110Z,54.28
2022-08-29T10:32:03.165Z,54.97
2022-08-29T10:33:03.118Z,54.85
2022-08-29T10:34:03.098Z,52.46
2022-08-29T10:35:03.077Z,53.30
2022-08-29T10:36:03.063Z,54.16
2022-08-29T10:37:03.067Z,50.78
2022-08-29T10:38:03.070Z,53.84
2022-08-29T10:39:03.041Z,56.00
2022-08-29T10:40:03.053Z,56.38
2022-08-29T10:41:02.999Z,60.20
2022-08-29T10:42:02.987Z,56.18
2022-08-29T10:43:03.022Z,55.60
2022-08-29T10:44:03.119Z,58.69
2022-08-29T10:45:02.999Z,56.63
2022-08-29T10:46:03.073Z,52.78
2022-08-29T10:47:03.229Z,56.69
2022-08-29T10:48:02.941Z,57.92
2022-08-29T10:49:02.928Z,55.82
2022-08-29T10:50:03.073Z,53.42
2022-08-29T10:51:02.917Z,55.30
2022-08-29T10:52:02.888Z,54.28
2022-08-29T10:53:02.923Z,54.03
2022-08-29T10:54:02.870Z,51.40
2022-08-29T10:55:02.894Z,54.27
2022-08-29T10:56:06.676Z,55.33
2022-08-29T10:57:02.855Z,56.25
2022-08-29T10:58:02.902Z,58.65
2022-08-29T10:59:02.845Z,55.60
2022-08-29T11:00:02.814Z,56.15
2022-08-29T11:01:06.869Z,54.94
2022-08-29T11:02:03.782Z,55.65
2022-08-29T11:03:02.835Z,53.52
2022-08-29T11:04:02.820Z,52.93
2022-08-29T11:05:02.789Z,59.01
2022-08-29T11:06:02.765Z,58.04
2022-08-29T11:07:02.750Z,59.65
2022-08-29T11:08:02.754Z,63.39
2022-08-29T11:09:02.704Z,64.51
2022-08-29T11:10:02.682Z,62.80
2022-08-29T11:11:02.702Z,59.53
2022-08-29T11:12:02.658Z,58.20
2022-08-29T11:13:02.734Z,62.80
2022-08-29T11:14:05.752Z,62.30
2022-08-29T11:15:02.653Z,64.78
2022-08-29T11:16:02.668Z,62.98
2022-08-29T11:17:03.349Z,68.73
2022-08-29T11:18:02.661Z,69.16
2022-08-29T11:19:02.637Z,67.93
2022-08-29T11:20:02.615Z,69.20
2022-08-29T11:21:02.590Z,69.53
2022-08-29T11:22:02.605Z,66.48
2022-08-29T11:23:02.601Z,58.74
2022-08-29T11:24:02.558Z,62.15
2022-08-29T11:25:02.576Z,60.07
2022-08-29T11:26:02.528Z,59.38
2022-08-29T11:27:02.559Z,60.24
2022-08-29T11:28:02.569Z,55.53
2022-08-29T11:29:02.502Z,55.09
2022-08-29T11:30:02.553Z,56.95
2022-08-29T11:31:02.569Z,58.81
2022-08-29T11:32:02.496Z,55.66
2022-08-29T11:33:02.519Z,57.86
2022-08-29T11:34:02.478Z,54.94
2022-08-29T11:35:02.456Z,52.89
2022-08-29T11:36:05.032Z,51.20
2022-08-29T11:37:02.433Z,49.26
2022-08-29T11:38:02.484Z,56.49
2022-08-29T11:39:02.417Z,54.96
2022-08-29T11:40:02.450Z,50.83
2022-08-29T11:42:03.378Z,48.99
2022-08-29T11:43:02.421Z,47.83
2022-08-29T11:44:03.338Z,50.56
2022-08-29T11:45:02.333Z,47.83
2022-08-29T11:46:02.334Z,48.01
2022-08-29T11:47:02.361Z,51.54
2022-08-29T11:48:02.349Z,50.66
2022-08-29T11:49:02.281Z,53.24
2022-08-29T11:50:02.304Z,52.19
2022-08-29T11:51:02.263Z,50.29
2022-08-29T11:52:02.287Z,50.31
2022-08-29T11:53:02.309Z,55.35
2022-08-29T11:54:02.242Z,54.34
2022-08-29T11:55:02.242Z,54.05
2022-08-29T11:56:02.237Z,59.80
2022-08-29T11:57:02.240Z,59.96
2022-08-29T11:58:05.178Z,64.89
2022-08-29T11:59:02.197Z,60.38
2022-08-29T12:00:02.303Z,58.12
2022-08-29T12:01:02.173Z,54.80
2022-08-29T12:02:02.273Z,53.89
2022-08-29T12:03:04.385Z,55.44
2022-08-29T12:04:03.171Z,55.51
2022-08-29T12:05:02.146Z,51.92
2022-08-29T12:06:02.142Z,51.72
2022-08-29T12:07:02.128Z,52.58
2022-08-29T12:08:14.446Z,54.30
2022-08-29T12:09:05.782Z,52.70
2022-08-29T12:10:02.136Z,51.37
2022-08-29T12:11:02.053Z,51.15
2022-08-29T12:12:02.108Z,53.85
2022-08-29T12:13:02.048Z,54.86
2022-08-29T12:14:04.686Z,54.84
2022-08-29T12:15:02.038Z,57.81
2022-08-29T12:16:02.033Z,57.81
2022-08-29T12:17:02.071Z,57.78
2022-08-29T12:18:03.710Z,56.14
2022-08-29T12:19:01.985Z,56.93
2022-08-29T12:20:01.998Z,54.06
2022-08-29T12:21:01.970Z,56.67
2022-08-29T12:22:02.012Z,58.87
2022-08-29T12:23:01.959Z,55.77
2022-08-29T12:24:01.943Z,59.62
2022-08-29T12:25:01.931Z,58.60
2022-08-29T12:26:21.428Z,57.74
2022-08-29T12:27:02.954Z,59.55
2022-08-29T12:28:01.907Z,56.95
2022-08-29T12:29:01.996Z,55.63
2022-08-29T12:30:01.935Z,58.44
2022-08-29T12:31:01.889Z,60.44
2022-08-29T12:32:18.855Z,64.69
2022-08-29T12:33:02.935Z,63.92
2022-08-29T12:34:01.857Z,65.01
2022-08-29T12:35:01.816Z,66.04
2022-08-29T12:36:01.812Z,66.41
2022-08-29T12:37:01.824Z,61.69
2022-08-29T12:38:03.187Z,60.81
2022-08-29T12:39:01.757Z,58.12
2022-08-29T12:40:01.889Z,56.14
2022-08-29T12:41:01.745Z,54.86
2022-08-29T12:42:01.765Z,55.52
2022-08-29T12:43:01.782Z,56.61
2022-08-29T12:44:03.809Z,52.93
2022-08-29T12:45:01.702Z,56.09
2022-08-29T12:46:01.702Z,53.67
2022-08-29T12:47:01.765Z,53.20
2022-08-29T12:48:01.739Z,54.68
2022-08-29T12:49:01.682Z,57.12
2022-08-29T12:50:01.676Z,52.95
2022-08-29T12:51:01.690Z,55.38
2022-08-29T12:52:01.649Z,57.23
2022-08-29T12:53:01.694Z,56.34